Terminal Aerodrome Forecast
Issued by NWS Mt. Holly, NJ

Home | Current Version | Previous Version | Text Only | Print | Product List | Glossary On
Versions: 1 2 3 4 5 6 7 8 9 10 11 12 13 14 15 16 17 18 19
613
FTUS41 KPHI 232321
TAFACY
TAF
KACY 232321Z 2400/2424 14006KT P6SM BKN250
     FM240600 09005KT P6SM OVC100
     FM241100 06009KT P6SM OVC050
      TEMPO 2415/2417 -SHRA OVC030
     FM241700 07012KT 6SM -SHRA OVC030
     FM242100 06014G20KT 4SM -RA BR OVC012=

USA.gov is the U.S. government's official web portal to all federal, state and local government web resources and services.